createdAt,value
2018-03-31T00:00:36.492Z,10.32
2018-03-31T00:01:36.506Z,10.51
2018-03-31T00:02:36.525Z,10.59
2018-03-31T00:03:36.543Z,10.66
2018-03-31T00:04:36.566Z,10.66
2018-03-31T00:05:36.586Z,10.68
2018-03-31T00:06:36.608Z,10.78
2018-03-31T00:07:36.616Z,10.73
2018-03-31T00:08:36.672Z,10.84
2018-03-31T00:09:36.655Z,10.81
2018-03-31T00:10:36.677Z,10.68
2018-03-31T00:11:36.697Z,10.71
2018-03-31T00:12:36.725Z,10.70
2018-03-31T00:13:36.752Z,10.84
2018-03-31T00:14:36.747Z,10.66
2018-03-31T00:15:36.764Z,10.62
2018-03-31T00:16:36.788Z,10.70
2018-03-31T00:17:36.817Z,10.74
2018-03-31T00:18:36.832Z,10.74
2018-03-31T00:19:36.838Z,10.70
2018-03-31T00:20:36.864Z,10.71
2018-03-31T00:21:36.876Z,10.62
2018-03-31T00:22:36.904Z,10.71
2018-03-31T00:23:36.918Z,10.66
2018-03-31T00:24:36.935Z,10.52
2018-03-31T00:25:36.951Z,10.52
2018-03-31T00:26:36.968Z,10.51
2018-03-31T00:27:36.986Z,10.47
2018-03-31T00:28:37.005Z,10.59
2018-03-31T00:29:37.024Z,10.43
2018-03-31T00:30:37.047Z,10.62
2018-03-31T00:31:37.066Z,10.62
2018-03-31T00:32:37.076Z,10.65
2018-03-31T00:33:37.095Z,10.60
2018-03-31T00:34:37.116Z,10.53
2018-03-31T00:35:37.128Z,10.63
2018-03-31T00:36:37.155Z,10.60
2018-03-31T00:37:37.169Z,10.60
2018-03-31T00:38:37.183Z,10.74
2018-03-31T00:39:37.206Z,10.59
2018-03-31T00:40:37.222Z,10.62
2018-03-31T00:41:37.240Z,10.60
2018-03-31T00:42:37.265Z,10.63
2018-03-31T00:43:37.278Z,10.65
2018-03-31T00:44:37.295Z,10.59
2018-03-31T00:45:37.322Z,10.71
2018-03-31T00:46:37.332Z,10.71
2018-03-31T00:47:37.347Z,10.60
2018-03-31T00:48:37.382Z,10.71
2018-03-31T00:49:37.393Z,10.78
2018-03-31T00:50:37.411Z,10.65
2018-03-31T00:51:37.436Z,10.42
2018-03-31T00:52:37.443Z,10.25
2018-03-31T00:53:37.465Z,10.33
2018-03-31T00:54:37.482Z,10.59
2018-03-31T00:55:37.494Z,10.76
2018-03-31T00:56:37.512Z,10.74
2018-03-31T00:57:37.543Z,10.73
2018-03-31T00:58:37.556Z,10.66
2018-03-31T00:59:37.571Z,10.71
2018-03-31T01:00:37.593Z,10.66
2018-03-31T01:01:37.609Z,10.66
2018-03-31T01:02:37.628Z,10.66
2018-03-31T01:03:37.652Z,10.66
2018-03-31T01:04:37.668Z,10.60
2018-03-31T01:05:37.685Z,10.65
2018-03-31T01:06:37.712Z,10.68
2018-03-31T01:07:37.720Z,10.73
2018-03-31T01:08:37.742Z,10.68
2018-03-31T01:09:37.759Z,10.66
2018-03-31T01:10:37.774Z,10.60
2018-03-31T01:11:37.794Z,10.63
2018-03-31T01:12:37.825Z,10.68
2018-03-31T01:13:37.828Z,10.58
2018-03-31T01:14:37.848Z,10.53
2018-03-31T01:15:37.872Z,10.26
2018-03-31T01:16:37.889Z,10.12
2018-03-31T01:17:37.903Z,9.99
2018-03-31T01:18:37.921Z,10.10
2018-03-31T01:19:37.942Z,10.44
2018-03-31T01:20:37.959Z,10.42
2018-03-31T01:21:37.980Z,10.60
2018-03-31T01:22:37.994Z,10.47
2018-03-31T01:23:38.013Z,10.55
2018-03-31T01:24:38.033Z,10.33
2018-03-31T01:25:38.051Z,10.28
2018-03-31T01:26:38.069Z,10.37
2018-03-31T01:27:38.097Z,10.55
2018-03-31T01:28:38.107Z,10.53
2018-03-31T01:29:38.143Z,10.52
2018-03-31T01:30:38.147Z,10.52
2018-03-31T01:31:38.162Z,10.46
2018-03-31T01:32:38.179Z,10.42
2018-03-31T01:33:38.200Z,10.58
2018-03-31T01:34:38.221Z,10.60
2018-03-31T01:35:38.244Z,10.58
2018-03-31T01:36:38.254Z,10.73
2018-03-31T01:37:38.274Z,10.70
2018-03-31T01:38:38.290Z,10.59
2018-03-31T01:39:38.313Z,10.46
2018-03-31T01:40:38.335Z,10.19
2018-03-31T01:41:38.350Z,9.93
2018-03-31T01:42:38.368Z,9.68
2018-03-31T01:43:38.393Z,9.82
2018-03-31T01:44:38.400Z,9.93
2018-03-31T01:45:38.421Z,10.12
2018-03-31T01:46:38.440Z,10.28
2018-03-31T01:47:38.457Z,10.24
2018-03-31T01:48:38.480Z,10.21
2018-03-31T01:49:38.498Z,10.19
2018-03-31T01:50:38.515Z,10.30
2018-03-31T01:51:38.542Z,10.28
2018-03-31T01:52:38.550Z,10.39
2018-03-31T01:53:38.568Z,10.51
2018-03-31T01:54:38.586Z,10.39
2018-03-31T01:55:38.608Z,10.43
2018-03-31T01:56:38.621Z,10.52
2018-03-31T01:57:38.645Z,10.44
2018-03-31T01:58:38.766Z,10.43
2018-03-31T01:59:38.691Z,10.51
2018-03-31T02:00:38.708Z,10.52
2018-03-31T02:01:38.735Z,10.55
2018-03-31T02:02:38.737Z,10.44
2018-03-31T02:03:38.753Z,10.37
2018-03-31T02:04:38.769Z,10.42
2018-03-31T02:05:38.787Z,10.42
2018-03-31T02:06:38.820Z,10.34
2018-03-31T02:07:38.830Z,10.37
2018-03-31T02:08:38.842Z,10.37
2018-03-31T02:09:38.864Z,10.39
2018-03-31T02:10:38.912Z,10.51
2018-03-31T02:11:38.898Z,10.58
2018-03-31T02:12:38.915Z,10.44
2018-03-31T02:13:38.936Z,10.37
2018-03-31T02:14:38.954Z,10.36
2018-03-31T02:15:38.977Z,10.24
2018-03-31T02:16:38.995Z,10.26
2018-03-31T02:17:39.006Z,10.04
2018-03-31T02:18:39.029Z,9.94
2018-03-31T02:19:39.046Z,9.91
2018-03-31T02:20:39.066Z,9.97
2018-03-31T02:21:39.082Z,9.94
2018-03-31T02:22:39.102Z,9.81
2018-03-31T02:23:39.128Z,9.97
2018-03-31T02:24:39.142Z,9.82
2018-03-31T02:25:39.164Z,9.85
2018-03-31T02:26:39.182Z,9.88
2018-03-31T02:27:39.192Z,9.94
2018-03-31T02:28:39.214Z,9.71
2018-03-31T02:29:39.231Z,9.71
2018-03-31T02:30:39.261Z,9.91
2018-03-31T02:31:39.270Z,10.09
2018-03-31T02:32:39.284Z,10.36
2018-03-31T02:33:39.305Z,10.33
2018-03-31T02:34:39.325Z,10.30
2018-03-31T02:35:39.342Z,10.30
2018-03-31T02:36:39.358Z,10.26
2018-03-31T02:37:39.388Z,10.36
2018-03-31T02:38:39.397Z,10.33
2018-03-31T02:39:39.413Z,10.33
2018-03-31T02:40:39.428Z,10.36
2018-03-31T02:41:39.448Z,10.46
2018-03-31T02:42:39.472Z,10.07
2018-03-31T02:43:39.485Z,10.12
2018-03-31T02:44:39.503Z,10.19
2018-03-31T02:45:39.522Z,10.24
2018-03-31T02:46:39.546Z,10.32
2018-03-31T02:47:39.595Z,10.36
2018-03-31T02:48:39.589Z,10.42
2018-03-31T02:49:39.605Z,10.40
2018-03-31T02:50:39.614Z,10.34
2018-03-31T02:51:39.637Z,10.40
2018-03-31T02:52:39.648Z,10.33
2018-03-31T02:53:39.670Z,10.34
2018-03-31T02:54:39.688Z,10.40
2018-03-31T02:55:39.707Z,10.40
2018-03-31T02:56:39.724Z,10.34
2018-03-31T02:57:39.744Z,10.26
2018-03-31T02:58:39.769Z,10.30
2018-03-31T02:59:39.807Z,10.32
2018-03-31T03:00:39.794Z,10.30
2018-03-31T03:01:39.816Z,10.36
2018-03-31T03:02:39.840Z,10.33
2018-03-31T03:03:39.849Z,10.17
2018-03-31T03:04:39.867Z,10.33
2018-03-31T03:05:39.901Z,10.01
2018-03-31T03:06:39.906Z,9.94
2018-03-31T03:07:39.927Z,9.93
2018-03-31T03:08:39.951Z,10.06
2018-03-31T03:09:39.962Z,10.17
2018-03-31T03:10:39.983Z,10.33
2018-03-31T03:11:40.013Z,10.21
2018-03-31T03:12:40.016Z,10.14
2018-03-31T03:13:40.034Z,10.15
2018-03-31T03:14:40.062Z,9.79
2018-03-31T03:15:40.092Z,9.78
2018-03-31T03:16:40.107Z,9.73
2018-03-31T03:17:40.114Z,9.61
2018-03-31T03:18:40.125Z,9.50
2018-03-31T03:19:40.200Z,9.48
2018-03-31T03:20:40.162Z,9.27
2018-03-31T03:21:40.176Z,9.63
2018-03-31T03:22:40.216Z,9.82
2018-03-31T03:23:40.223Z,9.96
2018-03-31T03:24:40.236Z,10.12
2018-03-31T03:25:40.258Z,10.17
2018-03-31T03:26:40.271Z,10.15
2018-03-31T03:27:40.288Z,10.22
2018-03-31T03:28:40.308Z,10.12
2018-03-31T03:29:40.330Z,10.26
2018-03-31T03:30:40.348Z,10.18
2018-03-31T03:31:40.366Z,10.09
2018-03-31T03:32:40.382Z,10.10
2018-03-31T03:33:40.415Z,10.18
2018-03-31T03:34:40.416Z,10.12
2018-03-31T03:35:40.440Z,10.10
2018-03-31T03:36:40.456Z,10.22
2018-03-31T03:37:40.471Z,10.22
2018-03-31T03:38:40.490Z,10.15
2018-03-31T03:39:40.533Z,10.15
2018-03-31T03:40:40.545Z,9.82
2018-03-31T03:41:40.548Z,9.91
2018-03-31T03:42:40.575Z,9.93
2018-03-31T03:43:40.578Z,9.99
2018-03-31T03:44:40.605Z,10.01
2018-03-31T03:45:40.623Z,10.07
2018-03-31T03:46:40.637Z,10.17
2018-03-31T03:47:40.651Z,10.10
2018-03-31T03:48:40.691Z,9.91
2018-03-31T03:49:40.694Z,9.91
2018-03-31T03:50:40.714Z,9.93
2018-03-31T03:51:40.724Z,9.99
2018-03-31T03:52:40.738Z,9.99
2018-03-31T03:53:40.761Z,10.07
2018-03-31T03:54:40.778Z,9.94
2018-03-31T03:55:40.801Z,9.81
2018-03-31T03:56:40.814Z,9.85
2018-03-31T03:57:40.832Z,9.94
2018-03-31T03:58:40.851Z,9.83
2018-03-31T03:59:40.870Z,9.96
2018-03-31T04:00:40.898Z,9.91
2018-03-31T04:01:40.902Z,9.93
2018-03-31T04:02:40.931Z,9.89
2018-03-31T04:03:40.949Z,9.85
2018-03-31T04:04:40.960Z,9.94
2018-03-31T04:05:40.977Z,9.94
2018-03-31T04:06:40.997Z,9.88
2018-03-31T04:07:41.015Z,9.88
2018-03-31T04:08:41.034Z,9.83
2018-03-31T04:09:41.056Z,9.89
2018-03-31T04:10:41.073Z,9.81
2018-03-31T04:11:41.097Z,9.91
2018-03-31T04:12:41.104Z,9.82
2018-03-31T04:13:41.125Z,9.96
2018-03-31T04:14:41.140Z,9.75
2018-03-31T04:15:41.159Z,9.79
2018-03-31T04:16:41.173Z,9.82
2018-03-31T04:17:41.193Z,9.79
2018-03-31T04:18:41.240Z,9.82
2018-03-31T04:19:41.283Z,9.85
2018-03-31T04:20:41.275Z,9.86
2018-03-31T04:21:41.307Z,9.67
2018-03-31T04:22:41.289Z,9.67
2018-03-31T04:23:41.298Z,9.68
2018-03-31T04:24:41.330Z,9.79
2018-03-31T04:25:41.340Z,9.73
2018-03-31T04:26:41.382Z,9.68
2018-03-31T04:27:41.374Z,9.81
2018-03-31T04:28:41.391Z,9.81
2018-03-31T04:29:41.414Z,9.82
2018-03-31T04:30:41.425Z,9.83
2018-03-31T04:31:41.444Z,9.71
2018-03-31T04:32:41.465Z,9.83
2018-03-31T04:33:41.486Z,9.76
2018-03-31T04:34:41.498Z,9.85
2018-03-31T04:35:41.512Z,9.78
2018-03-31T04:36:41.534Z,9.68
2018-03-31T04:37:41.550Z,9.71
2018-03-31T04:38:41.571Z,9.75
2018-03-31T04:39:41.582Z,9.79
2018-03-31T04:40:41.600Z,9.76
2018-03-31T04:41:41.619Z,9.56
2018-03-31T04:42:41.642Z,9.70
2018-03-31T04:43:41.662Z,9.67
2018-03-31T04:44:41.677Z,9.63
2018-03-31T04:45:41.692Z,9.79
2018-03-31T04:46:41.711Z,9.79
2018-03-31T04:47:41.728Z,9.68
2018-03-31T04:48:41.744Z,9.75
2018-03-31T04:49:41.774Z,9.71
2018-03-31T04:50:41.777Z,9.66
2018-03-31T04:51:41.798Z,9.64
2018-03-31T04:52:41.866Z,9.83
2018-03-31T04:53:41.831Z,9.64
2018-03-31T04:54:41.862Z,9.61
2018-03-31T04:55:41.869Z,9.56
2018-03-31T04:56:41.882Z,9.57
2018-03-31T04:57:41.910Z,9.61
2018-03-31T04:58:41.925Z,9.53
2018-03-31T04:59:41.940Z,9.52
2018-03-31T05:00:41.952Z,9.46
2018-03-31T05:01:41.975Z,9.48
2018-03-31T05:02:42.005Z,9.52
2018-03-31T05:03:42.008Z,9.57
2018-03-31T05:04:42.030Z,9.46
2018-03-31T05:05:42.051Z,9.46
2018-03-31T05:06:42.068Z,9.57
2018-03-31T05:07:42.082Z,9.63
2018-03-31T05:08:42.102Z,9.60
2018-03-31T05:09:42.121Z,9.75
2018-03-31T05:10:42.133Z,9.60
2018-03-31T05:11:42.150Z,9.68
2018-03-31T05:12:42.167Z,9.68
2018-03-31T05:13:42.189Z,9.66
2018-03-31T05:14:42.209Z,9.64
2018-03-31T05:15:42.218Z,9.68
2018-03-31T05:16:42.243Z,9.67
2018-03-31T05:17:42.284Z,9.70
2018-03-31T05:18:42.273Z,9.68
2018-03-31T05:19:42.289Z,9.67
2018-03-31T05:20:42.305Z,9.68
2018-03-31T05:21:42.325Z,9.64
2018-03-31T05:22:42.349Z,9.67
2018-03-31T05:23:42.363Z,9.60
2018-03-31T05:24:42.381Z,9.64
2018-03-31T05:25:42.395Z,9.63
2018-03-31T05:26:42.417Z,9.63
2018-03-31T05:27:42.438Z,9.67
2018-03-31T05:28:42.443Z,9.67
2018-03-31T05:29:42.462Z,9.66
2018-03-31T05:30:42.489Z,9.66
2018-03-31T05:31:42.500Z,9.71
2018-03-31T05:32:42.515Z,9.71
2018-03-31T05:33:42.535Z,9.61
2018-03-31T05:34:42.553Z,9.58
2018-03-31T05:35:42.577Z,9.50
2018-03-31T05:36:42.588Z,9.61
2018-03-31T05:37:42.607Z,9.61
2018-03-31T05:38:42.622Z,9.61
2018-03-31T05:39:42.643Z,9.49
2018-03-31T05:40:42.666Z,9.50
2018-03-31T05:41:42.699Z,9.53
2018-03-31T05:42:42.694Z,9.61
2018-03-31T05:43:42.713Z,9.52
2018-03-31T05:44:42.732Z,9.49
2018-03-31T05:45:42.748Z,9.63
2018-03-31T05:46:42.772Z,9.61
2018-03-31T05:47:42.786Z,9.58
2018-03-31T05:48:42.798Z,9.61
2018-03-31T05:49:42.887Z,9.66
2018-03-31T05:50:42.844Z,9.63
2018-03-31T05:51:42.855Z,9.58
2018-03-31T05:52:42.869Z,9.58
2018-03-31T05:53:42.901Z,9.48
2018-03-31T05:54:42.905Z,9.49
2018-03-31T05:55:42.927Z,9.60
2018-03-31T05:56:42.958Z,9.58
2018-03-31T05:57:42.965Z,9.64
2018-03-31T05:58:42.998Z,9.27
2018-03-31T05:59:43.013Z,9.56
2018-03-31T06:00:43.024Z,9.20
2018-03-31T06:01:43.032Z,9.21
2018-03-31T06:02:43.118Z,9.20
2018-03-31T06:03:43.068Z,9.39
2018-03-31T06:04:43.082Z,9.31
2018-03-31T06:05:43.109Z,8.96
2018-03-31T06:06:43.121Z,8.93
2018-03-31T06:07:43.136Z,9.02
2018-03-31T06:08:43.165Z,9.05
2018-03-31T06:09:43.177Z,9.25
2018-03-31T06:10:43.193Z,9.48
2018-03-31T06:11:43.212Z,9.63
2018-03-31T06:12:43.223Z,9.66
2018-03-31T06:13:43.243Z,9.73
2018-03-31T06:14:43.267Z,9.56
2018-03-31T06:15:43.275Z,9.64
2018-03-31T06:16:43.293Z,9.78
2018-03-31T06:17:43.321Z,9.61
2018-03-31T06:18:43.332Z,9.64
2018-03-31T06:19:43.360Z,9.68
2018-03-31T06:20:43.372Z,9.67
2018-03-31T06:21:43.381Z,9.79
2018-03-31T06:22:43.400Z,9.73
2018-03-31T06:23:43.418Z,9.79
2018-03-31T06:24:43.434Z,9.73
2018-03-31T06:25:43.463Z,9.82
2018-03-31T06:26:43.470Z,9.78
2018-03-31T06:27:43.498Z,9.71
2018-03-31T06:28:43.514Z,9.68
2018-03-31T06:29:43.524Z,9.53
2018-03-31T06:30:43.542Z,9.63
2018-03-31T06:31:43.560Z,9.64
2018-03-31T06:32:43.582Z,9.64
2018-03-31T06:33:43.593Z,9.58
2018-03-31T06:34:43.610Z,9.50
2018-03-31T06:35:43.628Z,9.35
2018-03-31T06:36:43.647Z,9.34
2018-03-31T06:37:43.670Z,9.68
2018-03-31T06:38:43.684Z,9.71
2018-03-31T06:39:43.696Z,9.71
2018-03-31T06:40:43.722Z,9.71
2018-03-31T06:41:43.744Z,9.71
2018-03-31T06:42:43.758Z,9.82
2018-03-31T06:43:43.771Z,9.78
2018-03-31T06:44:43.789Z,9.78
2018-03-31T06:45:43.808Z,9.81
2018-03-31T06:46:43.899Z,9.94
2018-03-31T06:47:43.839Z,9.67
2018-03-31T06:48:43.903Z,9.76
2018-03-31T06:49:43.886Z,9.82
2018-03-31T06:50:43.941Z,9.63
2018-03-31T06:51:43.926Z,9.61
2018-03-31T06:52:44.065Z,9.49
2018-03-31T06:53:43.950Z,9.39
2018-03-31T06:54:44.116Z,9.27
2018-03-31T06:55:43.986Z,9.24
2018-03-31T06:56:44.074Z,9.61
2018-03-31T06:57:44.021Z,9.60
2018-03-31T06:58:44.053Z,9.73
2018-03-31T06:59:44.060Z,9.82
2018-03-31T07:00:44.086Z,9.88
2018-03-31T07:01:44.095Z,9.85
2018-03-31T07:02:44.121Z,9.79
2018-03-31T07:03:44.146Z,9.71
2018-03-31T07:04:44.144Z,9.57
2018-03-31T07:05:44.180Z,9.67
2018-03-31T07:06:44.189Z,9.57
2018-03-31T07:07:44.199Z,9.73
2018-03-31T07:08:44.222Z,9.88
2018-03-31T07:09:44.237Z,9.76
2018-03-31T07:10:44.258Z,9.53
2018-03-31T07:11:44.277Z,9.58
2018-03-31T07:12:44.292Z,9.88
2018-03-31T07:13:44.306Z,9.85
2018-03-31T07:14:44.326Z,9.93
2018-03-31T07:15:44.378Z,9.75
2018-03-31T07:16:44.370Z,9.71
2018-03-31T07:17:44.387Z,9.78
2018-03-31T07:18:44.403Z,9.97
2018-03-31T07:19:44.428Z,10.10
2018-03-31T07:20:44.435Z,9.82
2018-03-31T07:21:44.451Z,9.88
2018-03-31T07:22:44.471Z,10.15
2018-03-31T07:23:44.489Z,10.12
2018-03-31T07:24:44.508Z,9.99
2018-03-31T07:25:44.530Z,10.30
2018-03-31T07:26:44.545Z,10.24
2018-03-31T07:27:44.558Z,10.37
2018-03-31T07:28:44.579Z,10.39
2018-03-31T07:29:44.595Z,10.58
2018-03-31T07:30:44.621Z,10.18
2018-03-31T07:31:44.641Z,10.03
2018-03-31T07:32:44.653Z,10.34
2018-03-31T07:33:44.669Z,10.37
2018-03-31T07:34:44.695Z,10.21
2018-03-31T07:35:44.706Z,10.04
2018-03-31T07:36:44.719Z,10.04
2018-03-31T07:37:44.742Z,9.99
2018-03-31T07:38:44.782Z,10.07
2018-03-31T07:39:44.774Z,10.30
2018-03-31T07:40:44.827Z,10.28
2018-03-31T07:41:44.816Z,10.47
2018-03-31T07:42:44.831Z,10.51
2018-03-31T07:43:44.846Z,10.47
2018-03-31T07:44:44.867Z,10.65
2018-03-31T07:45:44.887Z,10.51
2018-03-31T07:46:44.916Z,10.58
2018-03-31T07:47:44.928Z,10.70
2018-03-31T07:48:44.962Z,10.80
2018-03-31T07:49:44.960Z,10.88
2018-03-31T07:50:44.980Z,11.02
2018-03-31T07:51:45.004Z,11.03
2018-03-31T07:52:45.020Z,10.68
2018-03-31T07:53:45.036Z,10.73
2018-03-31T07:54:45.058Z,10.51
2018-03-31T07:55:45.070Z,10.56
2018-03-31T07:56:45.100Z,10.83
2018-03-31T07:57:45.114Z,10.63
2018-03-31T07:58:45.129Z,10.70
2018-03-31T07:59:45.146Z,10.60
2018-03-31T08:00:45.165Z,10.83
2018-03-31T08:01:45.184Z,10.91
2018-03-31T08:02:45.210Z,11.16
2018-03-31T08:03:45.219Z,11.20
2018-03-31T08:04:45.295Z,10.96
2018-03-31T08:05:45.258Z,11.09
2018-03-31T08:06:45.272Z,10.88
2018-03-31T08:07:45.291Z,11.02
2018-03-31T08:08:45.306Z,10.95
2018-03-31T08:09:45.334Z,11.19
2018-03-31T08:10:45.350Z,11.02
2018-03-31T08:11:45.366Z,10.92
2018-03-31T08:12:45.387Z,11.01
2018-03-31T08:13:45.408Z,10.88
2018-03-31T08:14:45.426Z,10.88
2018-03-31T08:15:45.439Z,10.98
2018-03-31T08:16:45.506Z,10.86
2018-03-31T08:17:45.530Z,10.99
2018-03-31T08:18:45.500Z,11.03
2018-03-31T08:19:45.519Z,11.16
2018-03-31T08:20:45.542Z,11.19
2018-03-31T08:21:45.560Z,11.07
2018-03-31T08:22:45.577Z,10.94
2018-03-31T08:23:45.596Z,10.99
2018-03-31T08:24:45.620Z,10.81
2018-03-31T08:25:45.628Z,11.06
2018-03-31T08:26:45.655Z,10.86
2018-03-31T08:27:45.685Z,11.09
2018-03-31T08:28:45.712Z,11.09
2018-03-31T08:29:45.713Z,11.19
2018-03-31T08:30:45.775Z,11.25
2018-03-31T08:31:45.752Z,10.94
2018-03-31T08:32:45.768Z,10.81
2018-03-31T08:33:45.788Z,10.92
2018-03-31T08:34:45.815Z,11.24
2018-03-31T08:35:45.824Z,11.27
2018-03-31T08:36:45.837Z,11.36
2018-03-31T08:37:45.874Z,11.36
2018-03-31T08:38:45.883Z,11.35
2018-03-31T08:39:45.898Z,11.39
2018-03-31T08:40:45.924Z,11.28
2018-03-31T08:41:46.003Z,11.25
2018-03-31T08:42:45.955Z,11.29
2018-03-31T08:43:45.987Z,11.27
2018-03-31T08:44:45.993Z,11.29
2018-03-31T08:45:46.014Z,11.36
2018-03-31T08:46:46.037Z,11.49
2018-03-31T08:47:46.063Z,11.52
2018-03-31T08:48:46.080Z,11.74
2018-03-31T08:49:46.096Z,11.93
2018-03-31T08:50:46.110Z,11.87
2018-03-31T08:51:46.129Z,11.68
2018-03-31T08:52:46.148Z,11.71
2018-03-31T08:53:46.195Z,11.65
2018-03-31T08:54:46.192Z,11.71
2018-03-31T08:55:46.212Z,11.85
2018-03-31T08:56:46.241Z,11.72
2018-03-31T08:57:46.241Z,11.46
2018-03-31T08:58:46.262Z,11.39
2018-03-31T08:59:46.286Z,11.41
2018-03-31T09:00:46.306Z,11.34
2018-03-31T09:01:46.322Z,11.11
2018-03-31T09:02:46.349Z,11.25
2018-03-31T09:03:46.389Z,11.38
2018-03-31T09:04:46.386Z,11.29
2018-03-31T09:05:46.473Z,11.47
2018-03-31T09:06:46.443Z,11.47
2018-03-31T09:07:46.442Z,11.49
2018-03-31T09:08:46.456Z,11.57
2018-03-31T09:09:46.475Z,11.61
2018-03-31T09:10:46.513Z,11.62
2018-03-31T09:11:46.517Z,11.56
2018-03-31T09:12:46.543Z,11.46
2018-03-31T09:13:46.626Z,11.50
2018-03-31T09:14:46.580Z,11.68
2018-03-31T09:15:46.602Z,11.46
2018-03-31T09:16:46.659Z,11.43
2018-03-31T09:17:46.632Z,11.49
2018-03-31T09:18:46.659Z,11.43
2018-03-31T09:19:46.677Z,11.47
2018-03-31T09:20:46.700Z,11.67
2018-03-31T09:21:46.715Z,11.67
2018-03-31T09:22:46.735Z,11.68
2018-03-31T09:23:46.748Z,11.74
2018-03-31T09:24:46.777Z,11.87
2018-03-31T09:25:46.794Z,11.85
2018-03-31T09:26:46.816Z,11.90
2018-03-31T09:27:46.834Z,12.23
2018-03-31T09:28:46.849Z,12.26
2018-03-31T09:29:46.885Z,12.01
2018-03-31T09:30:46.888Z,12.12
2018-03-31T09:31:46.918Z,12.15
2018-03-31T09:32:46.924Z,12.05
2018-03-31T09:33:46.943Z,12.16
2018-03-31T09:34:46.969Z,12.16
2018-03-31T09:35:46.999Z,12.29
2018-03-31T09:36:47.012Z,12.57
2018-03-31T09:37:47.027Z,12.71
2018-03-31T09:38:47.048Z,12.79
2018-03-31T09:39:47.072Z,12.85
2018-03-31T09:40:47.086Z,12.92
2018-03-31T09:41:47.104Z,12.97
2018-03-31T09:42:47.126Z,13.07
2018-03-31T09:43:47.144Z,12.93
2018-03-31T09:44:47.172Z,12.99
2018-03-31T09:45:47.194Z,12.95
2018-03-31T09:46:47.326Z,12.89
2018-03-31T09:47:47.232Z,12.93
2018-03-31T09:48:47.247Z,12.62
2018-03-31T09:49:47.273Z,12.66
2018-03-31T09:50:47.284Z,12.59
2018-03-31T09:51:47.308Z,12.56
2018-03-31T09:52:47.324Z,12.85
2018-03-31T09:53:47.351Z,12.74
2018-03-31T09:54:47.366Z,12.60
2018-03-31T09:55:47.395Z,12.64
2018-03-31T09:56:47.430Z,12.62
2018-03-31T09:57:47.431Z,12.56
2018-03-31T09:58:47.461Z,12.51
2018-03-31T09:59:47.475Z,12.71
2018-03-31T10:00:47.502Z,12.64
2018-03-31T10:01:47.521Z,12.77
2018-03-31T10:02:47.631Z,12.60
2018-03-31T10:03:47.558Z,12.52
2018-03-31T10:04:47.578Z,12.56
2018-03-31T10:05:47.590Z,12.42
2018-03-31T10:06:47.635Z,12.60
2018-03-31T10:07:47.644Z,12.42
2018-03-31T10:08:47.669Z,12.29
2018-03-31T10:09:47.674Z,12.37
2018-03-31T10:10:47.698Z,12.51
2018-03-31T10:11:47.720Z,12.69
2018-03-31T10:12:47.735Z,12.56
2018-03-31T10:13:47.759Z,12.52
2018-03-31T10:14:47.787Z,12.70
2018-03-31T10:15:47.821Z,12.69
2018-03-31T10:16:47.823Z,12.63
2018-03-31T10:17:47.841Z,12.64
2018-03-31T10:18:47.875Z,12.70
2018-03-31T10:19:47.889Z,12.82
2018-03-31T10:20:47.913Z,13.15
2018-03-31T10:21:47.923Z,13.14
2018-03-31T10:22:47.951Z,12.69
2018-03-31T10:23:47.973Z,12.81
2018-03-31T10:24:47.983Z,12.92
2018-03-31T10:25:48.002Z,13.14
2018-03-31T10:26:48.030Z,13.22
2018-03-31T10:27:48.065Z,13.17
2018-03-31T10:28:48.062Z,13.06
2018-03-31T10:29:48.084Z,13.07
2018-03-31T10:30:48.114Z,13.21
2018-03-31T10:31:48.138Z,13.06
2018-03-31T10:32:48.156Z,12.96
2018-03-31T10:33:48.170Z,13.07
2018-03-31T10:34:48.208Z,13.44
2018-03-31T10:35:48.209Z,13.30
2018-03-31T10:36:48.229Z,13.12
2018-03-31T10:37:48.248Z,12.95
2018-03-31T10:38:48.270Z,12.70
2018-03-31T10:39:48.297Z,12.96
2018-03-31T10:40:48.323Z,13.00
2018-03-31T10:41:48.331Z,13.21
2018-03-31T10:42:48.354Z,13.17
2018-03-31T10:43:48.371Z,13.14
2018-03-31T10:44:48.392Z,13.14
2018-03-31T10:45:48.414Z,13.15
2018-03-31T10:46:48.441Z,13.18
2018-03-31T10:47:48.463Z,13.14
2018-03-31T10:48:48.481Z,13.17
2018-03-31T10:49:48.507Z,12.95
2018-03-31T10:50:48.518Z,12.96
2018-03-31T10:51:48.558Z,12.95
2018-03-31T10:52:48.571Z,13.21
2018-03-31T10:53:48.581Z,13.37
2018-03-31T10:54:48.608Z,13.17
2018-03-31T10:55:48.678Z,13.21
2018-03-31T10:56:48.648Z,13.32
2018-03-31T10:57:48.670Z,13.36
2018-03-31T10:58:48.686Z,13.11
2018-03-31T10:59:48.709Z,13.32
2018-03-31T11:00:48.728Z,13.32
2018-03-31T11:01:48.756Z,13.37
2018-03-31T11:02:48.772Z,13.22
2018-03-31T11:03:48.817Z,13.18
2018-03-31T11:04:48.821Z,13.33
2018-03-31T11:05:48.839Z,13.52
2018-03-31T11:06:48.858Z,13.56
2018-03-31T11:07:48.919Z,13.49
2018-03-31T11:08:48.892Z,13.56
2018-03-31T11:09:48.917Z,13.63
2018-03-31T11:10:48.941Z,13.54
2018-03-31T11:11:48.963Z,13.58
2018-03-31T11:12:49.011Z,13.71
2018-03-31T11:13:49.001Z,13.52
2018-03-31T11:14:49.045Z,13.56
2018-03-31T11:15:49.057Z,13.51
2018-03-31T11:16:49.074Z,13.61
2018-03-31T11:17:49.096Z,13.80
2018-03-31T11:18:49.117Z,13.79
2018-03-31T11:19:49.131Z,13.62
2018-03-31T11:20:49.146Z,13.36
2018-03-31T11:21:49.175Z,13.46
2018-03-31T11:22:49.204Z,13.79
2018-03-31T11:23:49.233Z,13.99
2018-03-31T11:24:49.255Z,14.07
2018-03-31T11:25:49.262Z,13.87
2018-03-31T11:26:49.280Z,13.52
2018-03-31T11:27:49.299Z,13.55
2018-03-31T11:28:49.317Z,13.51
2018-03-31T11:29:49.341Z,13.59
2018-03-31T11:30:49.367Z,13.59
2018-03-31T11:31:49.382Z,13.49
2018-03-31T11:32:49.405Z,13.59
2018-03-31T11:33:49.435Z,13.59
2018-03-31T11:34:49.450Z,13.67
2018-03-31T11:35:49.472Z,13.56
2018-03-31T11:36:49.492Z,13.54
2018-03-31T11:37:49.517Z,13.67
2018-03-31T11:38:49.534Z,13.47
2018-03-31T11:39:49.567Z,13.69
2018-03-31T11:40:49.588Z,13.88
2018-03-31T11:41:49.598Z,13.99
2018-03-31T11:42:49.614Z,14.35
2018-03-31T11:43:49.636Z,14.27
2018-03-31T11:44:49.691Z,14.24
2018-03-31T11:45:49.687Z,14.20
2018-03-31T11:46:49.718Z,14.19
2018-03-31T11:47:49.730Z,14.09
2018-03-31T11:48:49.758Z,13.92
2018-03-31T11:49:49.767Z,13.84
2018-03-31T11:50:49.789Z,13.73
2018-03-31T11:51:49.823Z,13.84
2018-03-31T11:52:49.837Z,13.79
2018-03-31T11:53:49.860Z,13.79
2018-03-31T11:54:49.879Z,13.80
2018-03-31T11:55:49.901Z,13.83
2018-03-31T11:56:49.919Z,14.01
2018-03-31T11:57:49.942Z,14.02
2018-03-31T11:58:49.960Z,13.76
2018-03-31T11:59:49.982Z,13.89
2018-03-31T12:00:50.051Z,13.94
2018-03-31T12:01:50.034Z,14.12
2018-03-31T12:02:50.045Z,14.54
2018-03-31T12:03:50.070Z,14.69
2018-03-31T12:04:50.096Z,14.46
2018-03-31T12:05:50.119Z,14.61
2018-03-31T12:06:50.147Z,14.88
2018-03-31T12:07:50.155Z,15.33
2018-03-31T12:08:50.181Z,15.39
2018-03-31T12:09:50.200Z,15.51
2018-03-31T12:10:50.223Z,15.21
2018-03-31T12:11:50.248Z,15.27
2018-03-31T12:12:50.262Z,14.87
2018-03-31T12:13:50.286Z,14.75
2018-03-31T12:14:50.310Z,14.72
2018-03-31T12:15:50.333Z,14.44
2018-03-31T12:16:50.353Z,14.43
2018-03-31T12:17:50.372Z,14.47
2018-03-31T12:18:50.408Z,14.44
2018-03-31T12:19:50.420Z,14.54
2018-03-31T12:20:50.449Z,14.69
2018-03-31T12:21:50.497Z,14.81
2018-03-31T12:22:50.491Z,14.72
2018-03-31T12:23:50.511Z,15.05
2018-03-31T12:24:50.534Z,14.94
2018-03-31T12:25:50.564Z,15.38
2018-03-31T12:26:50.592Z,15.81
2018-03-31T12:27:50.608Z,16.04
2018-03-31T12:28:50.621Z,16.11
2018-03-31T12:29:50.730Z,15.85
2018-03-31T12:30:50.692Z,15.67
2018-03-31T12:31:50.692Z,15.48
2018-03-31T12:32:50.710Z,15.48
2018-03-31T12:33:50.735Z,15.38
2018-03-31T12:34:50.761Z,15.11
2018-03-31T12:35:50.808Z,15.01
2018-03-31T12:36:50.814Z,15.43
2018-03-31T12:37:50.839Z,15.92
2018-03-31T12:38:50.858Z,15.45
2018-03-31T12:39:50.908Z,15.67
2018-03-31T12:40:50.912Z,15.72
2018-03-31T12:41:50.915Z,15.61
2018-03-31T12:42:50.941Z,16.44
2018-03-31T12:43:50.962Z,16.96
2018-03-31T12:44:51.021Z,17.48
2018-03-31T12:45:51.024Z,17.79
2018-03-31T12:46:51.036Z,18.21
2018-03-31T12:47:51.065Z,17.73
2018-03-31T12:48:51.100Z,16.93
2018-03-31T12:49:51.112Z,17.00
2018-03-31T12:50:51.135Z,17.18
2018-03-31T12:51:51.157Z,17.87
2018-03-31T12:52:51.182Z,18.87
2018-03-31T12:53:51.212Z,19.20
2018-03-31T12:54:51.236Z,18.47
2018-03-31T12:55:51.258Z,17.28
2018-03-31T12:56:51.296Z,16.35
2018-03-31T12:57:51.299Z,16.85
2018-03-31T12:58:51.345Z,16.90
2018-03-31T12:59:51.355Z,17.11
2018-03-31T13:00:51.395Z,16.93